Time;durP1;ratioP1;P1;durP2;ratioP2;P2;SDS_P1;SDS_P2;PMS_P1;PMS_P2;Temp;Humidity;BMP_temperature;BMP_pressure;BME280_temperature;BME280_humidity;BME280_pressure;Samples;Min_cycle;Max_cycle;Signal;HPM_P1;HPM_P2
2024/01/22 00:01:49;;;;;;;11.88;7.80;;;5.80;91.40;;;;;;5028997;28;20036;-50
2024/01/22 00:04:16;;;;;;;11.48;6.63;;;5.80;91.20;;;;;;5031261;28;20431;-48
2024/01/22 00:06:47;;;;;;;16.42;6.38;;;5.80;91.30;;;;;;5026860;28;20036;-49
2024/01/22 00:09:14;;;;;;;7.75;5.85;;;5.80;91.20;;;;;;5025508;28;20446;-48
2024/01/22 00:11:41;;;;;;;9.95;6.60;;;5.80;91.30;;;;;;5002603;28;20038;-47
2024/01/22 00:14:07;;;;;;;9.57;7.05;;;5.90;91.10;;;;;;5031098;28;20329;-51
2024/01/22 00:16:37;;;;;;;10.98;6.72;;;5.90;91.00;;;;;;5019258;28;20485;-47
2024/01/22 00:19:05;;;;;;;9.70;6.20;;;5.90;90.90;;;;;;5021526;28;20053;-49
2024/01/22 00:21:32;;;;;;;14.68;6.25;;;6.00;90.80;;;;;;5013829;28;20437;-46
2024/01/22 00:23:58;;;;;;;12.43;5.82;;;6.00;90.50;;;;;;5025991;28;20052;-47
2024/01/22 00:26:25;;;;;;;10.82;6.10;;;6.00;90.50;;;;;;4991726;28;20224;-47
2024/01/22 00:28:50;;;;;;;8.68;6.00;;;6.00;90.40;;;;;;4991921;28;20047;-49
2024/01/22 00:31:17;;;;;;;8.10;5.13;;;6.10;90.40;;;;;;5011737;28;20306;-49
2024/01/22 00:33:46;;;;;;;9.32;5.90;;;6.20;90.40;;;;;;5024141;28;20140;-47
2024/01/22 00:36:14;;;;;;;9.75;5.88;;;6.20;90.40;;;;;;5019968;28;20048;-48
2024/01/22 00:38:41;;;;;;;10.80;6.47;;;6.20;90.30;;;;;;5033076;28;20029;-50
2024/01/22 00:41:09;;;;;;;9.82;6.45;;;6.30;90.30;;;;;;5028197;28;20104;-49
2024/01/22 00:43:37;;;;;;;9.95;5.65;;;6.30;90.30;;;;;;5021459;28;20030;-51
2024/01/22 00:46:06;;;;;;;11.27;5.50;;;6.40;90.30;;;;;;5032614;28;20411;-53
2024/01/22 00:48:36;;;;;;;;;;;6.30;90.20;;;;;;5022707;28;20461;-56
2024/01/22 00:51:04;;;;;;;8.90;5.35;;;6.30;90.60;;;;;;5021368;28;19913;-58
2024/01/22 00:53:29;;;;;;;9.23;6.43;;;6.30;90.80;;;;;;5030030;28;20026;-58
2024/01/22 00:55:56;;;;;;;9.95;6.05;;;6.40;90.90;;;;;;5017544;28;20021;-59
2024/01/22 00:58:22;;;;;;;9.38;5.05;;;6.40;90.70;;;;;;5020329;28;20052;-58
2024/01/22 01:00:48;;;;;;;12.07;6.13;;;6.40;90.70;;;;;;4978382;28;20030;-58
2024/01/22 01:03:14;;;;;;;8.80;5.47;;;6.40;90.80;;;;;;5007957;28;20041;-57
2024/01/22 01:05:40;;;;;;;10.15;5.40;;;6.40;90.70;;;;;;5023508;28;20584;-54
2024/01/22 01:08:07;;;;;;;11.45;5.60;;;6.40;90.50;;;;;;5032633;28;20044;-54
2024/01/22 01:10:37;;;;;;;11.93;5.40;;;6.40;90.70;;;;;;5034559;28;20114;-53
2024/01/22 01:13:03;;;;;;;7.57;4.85;;;6.50;90.60;;;;;;5034076;28;20045;-55
2024/01/22 01:15:30;;;;;;;9.82;5.18;;;6.50;90.50;;;;;;4980939;28;20030;-55
2024/01/22 01:17:57;;;;;;;11.88;5.43;;;6.60;90.20;;;;;;5024536;28;20037;-54
2024/01/22 01:20:23;;;;;;;11.40;4.65;;;6.50;90.30;;;;;;5034451;28;20039;-52
2024/01/22 01:22:49;;;;;;;8.60;4.80;;;6.60;90.50;;;;;;5017113;28;20026;-56
2024/01/22 01:25:15;;;;;;;10.18;5.10;;;6.70;90.00;;;;;;5011981;28;20446;-50
2024/01/22 01:27:42;;;;;;;11.07;5.00;;;6.60;90.10;;;;;;5010514;28;20026;-55
2024/01/22 01:30:10;;;;;;;7.80;5.28;;;6.70;90.10;;;;;;5034448;28;20037;-53
2024/01/22 01:32:40;;;;;;;7.13;4.60;;;6.70;90.20;;;;;;5034806;28;20057;-53
2024/01/22 01:35:07;;;;;;;11.30;4.88;;;6.80;90.20;;;;;;5013335;28;20383;-52
2024/01/22 01:37:33;;;;;;;7.88;5.43;;;6.80;90.10;;;;;;5007352;28;20034;-51
2024/01/22 01:40:00;;;;;;;7.75;5.63;;;6.80;90.20;;;;;;4995579;28;20030;-57
2024/01/22 01:42:27;;;;;;;6.07;4.90;;;6.90;90.30;;;;;;5008906;28;20109;-62
2024/01/22 01:44:54;;;;;;;6.95;4.80;;;6.90;90.30;;;;;;4999023;28;20105;-63
2024/01/22 01:47:23;;;;;;;10.95;5.28;;;6.90;90.40;;;;;;5016919;28;20034;-62
2024/01/22 01:49:50;;;;;;;9.55;5.45;;;6.90;90.70;;;;;;4988586;28;20022;-61
2024/01/22 01:52:18;;;;;;;9.88;5.20;;;6.90;90.80;;;;;;5027958;28;20044;-61
2024/01/22 01:54:49;;;;;;;8.30;5.70;;;7.00;90.80;;;;;;5019063;28;20022;-61
2024/01/22 01:57:21;;;;;;;10.70;6.78;;;7.00;90.70;;;;;;5014298;28;20030;-59
2024/01/22 01:59:48;;;;;;;9.27;6.05;;;7.00;90.90;;;;;;5033779;28;20017;-62
2024/01/22 02:02:15;;;;;;;8.38;5.78;;;7.00;90.90;;;;;;5023421;28;20029;-63
2024/01/22 02:04:41;;;;;;;5.82;5.07;;;7.00;91.00;;;;;;5013913;28;20348;-61
2024/01/22 02:07:11;;;;;;;7.07;5.75;;;7.00;91.00;;;;;;5000433;28;20050;-60
2024/01/22 02:09:53;;;;;;;8.00;5.95;;;7.00;91.20;;;;;;4985105;28;20096;-63
2024/01/22 02:12:20;;;;;;;8.73;5.72;;;7.00;91.20;;;;;;5007356;28;20113;-63
2024/01/22 02:14:48;;;;;;;8.45;5.10;;;7.00;91.10;;;;;;5006288;28;20094;-64
2024/01/22 02:17:17;;;;;;;9.70;5.85;;;7.10;91.10;;;;;;4996917;28;20030;-64
2024/01/22 02:19:44;;;;;;;9.50;6.53;;;7.10;91.00;;;;;;5033576;28;20029;-63
2024/01/22 02:22:11;;;;;;;6.57;5.05;;;7.10;91.30;;;;;;5033681;28;20033;-63
2024/01/22 02:24:38;;;;;;;6.18;5.25;;;7.20;91.20;;;;;;5013610;28;20025;-63
2024/01/22 02:27:05;;;;;;;8.82;5.05;;;7.20;91.40;;;;;;5029504;28;20036;-63
2024/01/22 02:29:31;;;;;;;7.30;5.47;;;7.20;91.50;;;;;;5033426;28;20526;-63
2024/01/22 02:32:00;;;;;;;8.15;4.68;;;7.30;91.80;;;;;;5029745;28;20197;-64
2024/01/22 02:34:27;;;;;;;5.60;3.85;;;7.40;91.70;;;;;;5021131;28;20466;-63
2024/01/22 02:36:54;;;;;;;5.90;4.20;;;7.40;91.80;;;;;;5010301;28;20462;-63
2024/01/22 02:39:21;;;;;;;5.80;4.03;;;7.40;91.70;;;;;;5005824;28;20577;-61
2024/01/22 02:41:47;;;;;;;7.43;3.95;;;7.50;91.90;;;;;;5032851;28;20037;-61
2024/01/22 02:44:16;;;;;;;6.35;4.35;;;7.50;91.90;;;;;;5014676;28;20526;-59
2024/01/22 02:46:42;;;;;;;9.10;4.83;;;7.40;92.10;;;;;;5000256;28;20442;-59
2024/01/22 02:49:09;;;;;;;6.70;3.60;;;7.40;92.30;;;;;;5032988;28;20652;-61
2024/01/22 02:51:36;;;;;;;5.63;3.38;;;7.40;92.50;;;;;;5029945;28;20029;-57
2024/01/22 02:54:04;;;;;;;7.82;4.25;;;7.40;92.80;;;;;;5002722;28;20042;-57
2024/01/22 02:56:30;;;;;;;9.02;4.43;;;7.40;92.80;;;;;;5021084;28;20060;-60
2024/01/22 02:58:58;;;;;;;8.13;5.05;;;7.40;93.10;;;;;;5032802;28;20037;-60
2024/01/22 03:01:23;;;;;;;7.93;4.25;;;7.30;93.10;;;;;;5031462;28;20025;-57
2024/01/22 03:03:50;;;;;;;9.25;4.10;;;7.40;93.20;;;;;;5019866;28;20531;-57
2024/01/22 03:06:17;;;;;;;8.95;4.47;;;7.40;93.40;;;;;;5014962;28;20049;-56
2024/01/22 03:08:44;;;;;;;9.40;4.70;;;7.40;93.50;;;;;;5030337;28;20056;-60
2024/01/22 03:11:10;;;;;;;11.68;6.07;;;7.40;93.60;;;;;;4993032;28;20041;-61
2024/01/22 03:13:38;;;;;;;6.95;4.45;;;7.40;93.70;;;;;;5012466;28;20449;-62
2024/01/22 03:16:04;;;;;;;8.77;4.57;;;7.40;93.80;;;;;;5001790;28;20042;-60
2024/01/22 03:18:31;;;;;;;7.15;4.32;;;7.40;93.90;;;;;;5012845;28;20045;-60
2024/01/22 03:20:58;;;;;;;7.70;4.00;;;7.40;93.90;;;;;;4995412;28;20065;-59
2024/01/22 03:23:24;;;;;;;8.68;4.68;;;7.40;94.00;;;;;;5011445;28;20053;-58
2024/01/22 03:25:51;;;;;;;5.30;3.40;;;7.40;94.00;;;;;;5021383;28;20018;-59
2024/01/22 03:28:22;;;;;;;5.60;4.20;;;7.40;94.00;;;;;;5023580;28;20061;-59
2024/01/22 03:30:53;;;;;;;6.63;3.67;;;7.40;94.00;;;;;;5019089;28;20030;-55
2024/01/22 03:33:20;;;;;;;8.82;4.28;;;7.40;94.00;;;;;;5032264;28;20122;-56
2024/01/22 03:35:46;;;;;;;10.45;3.78;;;7.50;94.00;;;;;;5005169;28;20030;-54
2024/01/22 03:38:14;;;;;;;5.70;3.58;;;7.50;94.00;;;;;;5023977;28;20036;-56
2024/01/22 03:40:40;;;;;;;6.85;4.25;;;7.50;93.90;;;;;;5018261;28;20040;-56
2024/01/22 03:43:07;;;;;;;7.75;3.53;;;7.60;93.90;;;;;;5013886;28;20057;-55
2024/01/22 03:45:33;;;;;;;7.88;3.85;;;7.60;93.90;;;;;;5012767;28;20323;-54
2024/01/22 03:48:00;;;;;;;8.27;4.78;;;7.60;93.90;;;;;;5009344;28;20036;-52
2024/01/22 03:50:26;;;;;;;6.70;3.55;;;7.70;93.90;;;;;;5019225;28;20039;-54
2024/01/22 03:52:52;;;;;;;8.68;3.60;;;7.70;93.90;;;;;;5020621;28;20030;-57
2024/01/22 03:55:19;;;;;;;10.32;4.40;;;7.80;93.80;;;;;;5013621;28;20034;-57
2024/01/22 03:57:46;;;;;;;7.32;3.85;;;7.90;93.80;;;;;;5015101;28;20025;-55
2024/01/22 04:00:16;;;;;;;7.82;4.60;;;7.90;93.80;;;;;;5013626;28;20092;-56
2024/01/22 04:02:41;;;;;;;;;;;7.90;93.80;;;;;;5012464;28;20018;-58
2024/01/22 04:05:09;;;;;;;5.80;3.75;;;7.90;93.70;;;;;;5018372;28;19913;-54
2024/01/22 04:07:37;;;;;;;5.72;3.45;;;8.00;93.80;;;;;;5020302;28;20026;-51
2024/01/22 04:10:04;;;;;;;6.40;2.97;;;8.00;93.90;;;;;;5019164;28;20026;-57
2024/01/22 04:12:31;;;;;;;9.40;3.80;;;8.10;93.90;;;;;;5006525;28;20037;-57
2024/01/22 04:14:57;;;;;;;6.90;3.90;;;8.10;93.80;;;;;;5026207;28;20029;-60
2024/01/22 04:17:23;;;;;;;6.60;3.20;;;8.10;93.90;;;;;;5031770;28;20022;-59
2024/01/22 04:19:49;;;;;;;7.15;3.97;;;8.20;94.00;;;;;;5020595;28;20029;-57
2024/01/22 04:22:15;;;;;;;5.22;3.45;;;8.20;94.00;;;;;;5021866;28;20022;-57
2024/01/22 04:24:43;;;;;;;7.82;3.25;;;8.20;93.90;;;;;;5030925;28;20383;-59
2024/01/22 04:27:10;;;;;;;4.97;3.08;;;8.20;93.90;;;;;;5013680;28;20029;-58
2024/01/22 04:29:36;;;;;;;8.82;3.80;;;8.30;93.90;;;;;;5020047;28;20104;-58
2024/01/22 04:32:04;;;;;;;5.70;3.03;;;8.40;93.90;;;;;;5024185;28;20602;-61
2024/01/22 04:34:32;;;;;;;3.85;2.55;;;8.40;93.60;;;;;;4975414;28;20455;-62
2024/01/22 04:36:59;;;;;;;6.57;3.30;;;8.40;93.60;;;;;;5021046;28;20030;-63
2024/01/22 04:39:25;;;;;;;7.63;3.08;;;8.40;93.60;;;;;;5018659;28;20100;-58
2024/01/22 04:41:53;;;;;;;4.13;3.00;;;8.50;93.70;;;;;;4994771;28;20022;-60
2024/01/22 04:44:19;;;;;;;5.95;2.70;;;8.50;93.60;;;;;;5010765;28;20419;-59
2024/01/22 04:46:52;;;;;;;3.97;2.60;;;8.50;93.60;;;;;;5012591;28;20683;-60
2024/01/22 04:49:18;;;;;;;5.85;2.53;;;8.50;93.60;;;;;;5022385;28;20022;-59
2024/01/22 04:51:45;;;;;;;4.88;3.05;;;8.50;93.60;;;;;;5011271;28;20080;-59
2024/01/22 04:54:11;;;;;;;7.00;3.05;;;8.60;93.60;;;;;;5019169;28;20065;-57
2024/01/22 04:56:45;;;;;;;4.97;2.70;;;8.60;93.70;;;;;;5016305;28;20072;-57
2024/01/22 04:59:12;;;;;;;3.97;2.25;;;8.60;93.70;;;;;;5013501;28;20037;-59
2024/01/22 05:01:40;;;;;;;4.00;2.40;;;8.60;93.80;;;;;;4999506;28;20620;-57
2024/01/22 05:04:07;;;;;;;5.10;2.63;;;8.60;93.80;;;;;;5031103;28;20049;-56
2024/01/22 05:06:33;;;;;;;5.03;2.90;;;8.60;93.90;;;;;;5028089;28;20048;-59
2024/01/22 05:09:00;;;;;;;3.58;2.20;;;8.60;94.00;;;;;;5006300;28;20675;-52
2024/01/22 05:11:27;;;;;;;5.65;3.25;;;8.60;94.00;;;;;;5031463;28;20348;-58
2024/01/22 05:13:54;;;;;;;4.32;2.40;;;8.60;93.90;;;;;;5031021;28;20025;-55
2024/01/22 05:16:25;;;;;;;3.45;1.98;;;8.60;94.10;;;;;;5019801;28;20552;-55
2024/01/22 05:18:53;;;;;;;4.55;2.63;;;8.60;94.10;;;;;;5030989;28;20338;-53
2024/01/22 05:21:21;;;;;;;3.22;2.03;;;8.60;94.00;;;;;;5018480;28;20031;-52
2024/01/22 05:23:49;;;;;;;4.50;2.60;;;8.60;94.20;;;;;;5012707;28;20017;-57
2024/01/22 05:26:18;;;;;;;4.15;2.17;;;8.60;94.20;;;;;;5025653;28;20033;-53
2024/01/22 05:28:45;;;;;;;6.53;2.83;;;8.70;94.30;;;;;;5019014;28;20053;-51
2024/01/22 05:31:11;;;;;;;5.28;2.58;;;8.70;94.30;;;;;;5013470;28;20098;-56
2024/01/22 05:33:37;;;;;;;3.78;1.95;;;8.80;94.30;;;;;;4988865;28;20402;-52
2024/01/22 05:36:13;;;;;;;3.20;2.00;;;8.80;94.10;;;;;;4988912;28;20057;-55
2024/01/22 05:38:48;;;;;;;5.13;2.38;;;8.90;94.40;;;;;;5013303;28;20089;-57
2024/01/22 05:41:17;;;;;;;4.47;2.17;;;8.90;94.30;;;;;;5012806;28;20029;-59
2024/01/22 05:43:47;;;;;;;3.15;1.55;;;8.90;94.40;;;;;;5013702;28;20038;-60
2024/01/22 05:46:13;;;;;;;5.63;1.65;;;8.90;94.50;;;;;;5012320;28;20034;-58
2024/01/22 05:48:43;;;;;;;7.38;2.40;;;8.90;94.60;;;;;;5014670;28;20018;-61
2024/01/22 05:51:09;;;;;;;3.33;1.88;;;8.90;94.70;;;;;;5013987;28;20046;-63
2024/01/22 05:53:38;;;;;;;3.85;1.77;;;8.90;94.80;;;;;;5014652;28;20153;-62
2024/01/22 05:56:05;;;;;;;3.33;2.10;;;8.90;95.00;;;;;;5013738;28;20052;-61
2024/01/22 05:58:32;;;;;;;3.53;1.83;;;8.90;95.10;;;;;;5015493;28;20268;-63
2024/01/22 06:00:59;;;;;;;4.22;1.77;;;8.90;95.20;;;;;;5018276;28;20040;-61
2024/01/22 06:03:25;;;;;;;2.80;1.55;;;8.90;95.30;;;;;;5010340;28;20479;-61
2024/01/22 06:05:52;;;;;;;2.72;1.60;;;8.90;95.50;;;;;;5015867;28;20033;-61
2024/01/22 06:08:19;;;;;;;6.57;2.20;;;9.00;95.50;;;;;;5023870;28;20022;-60
2024/01/22 06:10:50;;;;;;;2.95;1.63;;;9.00;95.50;;;;;;5018570;28;20040;-58
2024/01/22 06:13:16;;;;;;;3.55;2.63;;;9.00;95.60;;;;;;5019799;28;20040;-61
2024/01/22 06:15:43;;;;;;;2.45;1.42;;;9.00;95.70;;;;;;5012736;28;20030;-58
2024/01/22 06:18:10;;;;;;;2.47;1.30;;;9.00;95.80;;;;;;5012802;28;20037;-58
2024/01/22 06:20:38;;;;;;;3.05;1.70;;;9.10;95.80;;;;;;5016439;28;20057;-58
2024/01/22 06:23:04;;;;;;;4.78;1.75;;;9.10;95.80;;;;;;5017350;28;20030;-58
2024/01/22 06:25:29;;;;;;;4.18;1.65;;;9.20;96.00;;;;;;5019724;28;20044;-61
2024/01/22 06:27:56;;;;;;;2.92;1.73;;;9.20;96.10;;;;;;5022449;28;20017;-62
2024/01/22 06:30:23;;;;;;;2.05;1.38;;;9.20;96.00;;;;;;5013395;28;20282;-61
2024/01/22 06:32:55;;;;;;;3.88;2.22;;;9.30;96.00;;;;;;5022981;28;20068;-59
2024/01/22 06:35:23;;;;;;;3.58;2.10;;;9.30;96.00;;;;;;4979466;28;20034;-59
2024/01/22 06:37:49;;;;;;;3.55;2.03;;;9.30;96.00;;;;;;5016242;28;20095;-56
2024/01/22 06:40:16;;;;;;;4.13;2.45;;;9.40;96.00;;;;;;5012202;28;20044;-58
2024/01/22 06:42:43;;;;;;;4.82;2.45;;;9.40;96.00;;;;;;5011938;28;20018;-56
2024/01/22 06:45:12;;;;;;;4.53;2.08;;;9.40;95.90;;;;;;5016252;28;20033;-53
2024/01/22 06:47:40;;;;;;;3.92;2.30;;;9.50;95.90;;;;;;5025778;28;20054;-57
2024/01/22 06:50:07;;;;;;;5.88;2.30;;;9.50;95.80;;;;;;4978294;28;20022;-60
2024/01/22 06:52:38;;;;;;;2.90;2.03;;;9.50;95.70;;;;;;5010752;28;20021;-53
2024/01/22 06:55:05;;;;;;;5.47;1.90;;;9.60;95.70;;;;;;5012215;28;20041;-58
2024/01/22 06:57:32;;;;;;;4.32;2.33;;;9.60;95.50;;;;;;5016022;28;20091;-62
2024/01/22 07:00:02;;;;;;;4.60;2.25;;;9.70;95.40;;;;;;5001689;28;20038;-60
2024/01/22 07:02:34;;;;;;;3.00;1.85;;;9.70;95.30;;;;;;5007971;28;20018;-60
2024/01/22 07:05:01;;;;;;;7.05;2.35;;;9.70;95.10;;;;;;4988899;28;20038;-60
2024/01/22 07:07:28;;;;;;;2.72;1.50;;;9.70;95.10;;;;;;4990201;28;20511;-61
2024/01/22 07:09:55;;;;;;;3.03;2.03;;;9.70;95.20;;;;;;5003089;28;20092;-61
2024/01/22 07:12:23;;;;;;;3.42;1.80;;;9.70;95.20;;;;;;4985635;28;20108;-63
2024/01/22 07:14:50;;;;;;;4.28;2.17;;;9.80;95.20;;;;;;4992706;28;20089;-62
2024/01/22 07:17:20;;;;;;;4.20;2.17;;;9.80;95.20;;;;;;4994583;28;20023;-62
2024/01/22 07:19:49;;;;;;;6.03;2.28;;;9.70;95.20;;;;;;4996800;28;20097;-62
2024/01/22 07:22:15;;;;;;;4.72;2.42;;;9.80;95.30;;;;;;4995394;28;20436;-62
2024/01/22 07:24:41;;;;;;;3.40;2.00;;;9.80;95.30;;;;;;4995177;28;20045;-62
2024/01/22 07:27:07;;;;;;;3.83;1.98;;;9.80;95.40;;;;;;4992012;28;20037;-61
2024/01/22 07:29:34;;;;;;;4.05;2.13;;;9.80;95.40;;;;;;4998915;28;20022;-61
2024/01/22 07:32:01;;;;;;;3.25;2.05;;;9.80;95.50;;;;;;4976805;28;20034;-61
2024/01/22 07:34:28;;;;;;;5.75;1.95;;;9.80;95.60;;;;;;4991272;28;20404;-61
2024/01/22 07:36:55;;;;;;;2.78;1.63;;;9.70;95.50;;;;;;4978514;28;20037;-61
2024/01/22 07:39:21;;;;;;;3.45;1.95;;;9.70;95.60;;;;;;4983308;28;20104;-61
2024/01/22 07:41:48;;;;;;;4.07;1.70;;;9.70;95.70;;;;;;4997768;28;20037;-60
2024/01/22 07:44:15;;;;;;;4.50;2.30;;;9.70;95.80;;;;;;4991908;28;20041;-60
2024/01/22 07:46:40;;;;;;;3.95;1.80;;;9.70;95.90;;;;;;4994614;28;20113;-59
2024/01/22 07:49:08;;;;;;;3.22;1.60;;;9.70;96.00;;;;;;5008174;28;20475;-57
2024/01/22 07:51:35;;;;;;;4.00;1.70;;;9.70;96.10;;;;;;4996421;28;20462;-58
2024/01/22 07:54:01;;;;;;;5.40;3.22;;;9.70;96.10;;;;;;4990486;28;20098;-54
2024/01/22 07:56:28;;;;;;;3.80;1.50;;;9.70;96.10;;;;;;4991926;28;20388;-58
2024/01/22 07:58:55;;;;;;;3.90;1.60;;;9.70;96.30;;;;;;4994777;28;20440;-59
2024/01/22 08:01:21;;;;;;;2.78;1.33;;;9.70;96.30;;;;;;4982064;28;20072;-59
2024/01/22 08:03:48;;;;;;;5.45;1.98;;;9.70;96.40;;;;;;5006469;28;20359;-57
2024/01/22 08:06:17;;;;;;;3.78;1.58;;;9.70;96.50;;;;;;5012470;28;20021;-60
2024/01/22 08:08:44;;;;;;;8.38;1.92;;;9.80;96.60;;;;;;5014330;28;20025;-55
2024/01/22 08:11:12;;;;;;;4.82;1.65;;;9.80;96.60;;;;;;5013757;28;20041;-58
2024/01/22 08:13:39;;;;;;;3.22;1.20;;;9.80;96.60;;;;;;5004440;28;20029;-60
2024/01/22 08:16:09;;;;;;;2.85;1.20;;;9.80;96.70;;;;;;4993297;28;20033;-62
2024/01/22 08:18:39;;;;;;;3.25;1.17;;;9.90;96.70;;;;;;5011964;28;20099;-62
2024/01/22 08:21:06;;;;;;;5.13;1.40;;;9.90;96.70;;;;;;4988006;28;20034;-60
2024/01/22 08:23:32;;;;;;;4.00;1.27;;;9.90;96.50;;;;;;5000959;28;20042;-60
2024/01/22 08:26:00;;;;;;;4.63;1.45;;;9.70;96.10;;;;;;5024357;28;20026;-62
2024/01/22 08:28:26;;;;;;;8.90;1.50;;;9.50;95.90;;;;;;5018753;28;20022;-60
2024/01/22 08:30:52;;;;;;;10.10;2.00;;;9.30;95.20;;;;;;5012925;28;20036;-60
2024/01/22 08:33:19;;;;;;;9.65;2.58;;;9.20;94.70;;;;;;5015545;28;20495;-60
2024/01/22 08:35:47;;;;;;;11.25;2.20;;;9.10;94.30;;;;;;5018930;28;20072;-56
2024/01/22 08:38:16;;;;;;;11.02;2.90;;;9.00;94.10;;;;;;5011377;28;20026;-59
2024/01/22 08:40:44;;;;;;;6.80;2.08;;;9.00;94.40;;;;;;5010679;28;20045;-60
2024/01/22 08:43:11;;;;;;;15.10;7.47;;;9.20;94.80;;;;;;4999571;28;20022;-61
2024/01/22 08:45:37;;;;;;;9.05;2.15;;;9.20;94.80;;;;;;5011591;28;20118;-59
2024/01/22 08:48:04;;;;;;;10.70;2.30;;;9.40;95.10;;;;;;4996442;28;20414;-57
2024/01/22 08:50:31;;;;;;;15.27;3.15;;;9.40;95.10;;;;;;5020073;28;20028;-54
2024/01/22 08:52:59;;;;;;;16.85;3.95;;;9.50;95.10;;;;;;5017968;28;20021;-59
2024/01/22 08:55:25;;;;;;;18.23;4.10;;;9.60;95.10;;;;;;4984412;28;20045;-58
2024/01/22 08:57:53;;;;;;;21.65;4.55;;;9.70;95.20;;;;;;5016286;28;20033;-56
2024/01/22 09:00:22;;;;;;;23.65;5.75;;;9.80;95.20;;;;;;5023094;28;20049;-57
2024/01/22 09:02:49;;;;;;;24.45;4.30;;;9.90;95.20;;;;;;5012864;28;20092;-58
2024/01/22 09:05:15;;;;;;;15.05;4.03;;;9.90;95.10;;;;;;5016522;28;20121;-57
2024/01/22 09:07:41;;;;;;;22.35;5.10;;;9.80;94.90;;;;;;5027226;28;20097;-52
2024/01/22 09:10:07;;;;;;;21.45;5.65;;;9.80;94.80;;;;;;5024455;28;20032;-55
2024/01/22 09:12:35;;;;;;;17.58;4.13;;;9.80;94.60;;;;;;5021336;28;20021;-52
2024/01/22 09:15:04;;;;;;;15.45;4.00;;;9.70;94.50;;;;;;5015337;28;20088;-54
2024/01/22 09:17:31;;;;;;;19.02;4.32;;;9.80;94.30;;;;;;5016988;28;20359;-51
2024/01/22 09:19:58;;;;;;;15.43;4.15;;;9.80;94.00;;;;;;5029142;28;20406;-54
2024/01/22 09:22:28;;;;;;;18.90;4.97;;;9.80;93.70;;;;;;5013661;28;20026;-48
2024/01/22 09:24:55;;;;;;;20.15;7.43;;;9.70;93.50;;;;;;5017809;28;20021;-53
2024/01/22 09:27:22;;;;;;;19.85;4.07;;;9.70;93.40;;;;;;5020579;28;20101;-56
2024/01/22 09:29:49;;;;;;;13.60;4.43;;;9.70;93.20;;;;;;5014711;28;20042;-54
2024/01/22 09:32:15;;;;;;;17.30;5.45;;;9.70;93.30;;;;;;5027169;28;20093;-49
2024/01/22 09:34:41;;;;;;;17.02;4.32;;;9.60;93.30;;;;;;5015718;28;20067;-55
2024/01/22 09:37:08;;;;;;;24.13;5.25;;;9.60;93.30;;;;;;5020341;28;20362;-53
2024/01/22 09:39:35;;;;;;;17.17;3.92;;;9.70;93.10;;;;;;5014025;28;20109;-51
2024/01/22 09:42:03;;;;;;;12.55;3.38;;;9.60;93.00;;;;;;5001175;28;20473;-49
2024/01/22 09:44:31;;;;;;;19.80;5.15;;;9.60;93.00;;;;;;5015101;28;20080;-52
2024/01/22 09:46:59;;;;;;;21.92;5.13;;;9.60;92.90;;;;;;5023178;28;20024;-49
2024/01/22 09:49:26;;;;;;;17.58;5.22;;;9.60;92.90;;;;;;5030781;28;20088;-51
2024/01/22 09:51:57;;;;;;;15.90;4.25;;;9.60;92.80;;;;;;5019016;28;20049;-51
2024/01/22 09:54:30;;;;;;;17.88;3.70;;;9.60;92.70;;;;;;5019956;28;20029;-50
2024/01/22 09:57:02;;;;;;;18.75;4.57;;;9.60;92.70;;;;;;5005874;28;20030;-47
2024/01/22 09:59:29;;;;;;;18.17;3.85;;;9.60;92.50;;;;;;4989693;28;20109;-49
2024/01/22 10:01:56;;;;;;;20.38;5.82;;;9.60;92.40;;;;;;5012822;28;20455;-46
2024/01/22 10:04:25;;;;;;;16.20;3.85;;;9.50;92.20;;;;;;5006381;28;20042;-48
2024/01/22 10:06:53;;;;;;;15.38;3.85;;;9.50;91.90;;;;;;5023648;28;20037;-50
2024/01/22 10:09:22;;;;;;;13.95;3.75;;;9.50;91.30;;;;;;5013292;28;20036;-47
2024/01/22 10:11:49;;;;;;;14.23;3.67;;;9.50;91.30;;;;;;5020597;28;20045;-46
2024/01/22 10:14:30;;;;;;;16.35;4.00;;;9.50;91.00;;;;;;5017077;28;20088;-47
2024/01/22 10:17:17;;;;;;;17.33;4.07;;;9.50;90.60;;;;;;5018172;28;20022;-46
2024/01/22 10:19:46;;;;;;;17.05;4.13;;;9.50;90.30;;;;;;4977018;28;20038;-47
2024/01/22 10:22:13;;;;;;;20.02;4.47;;;9.50;90.10;;;;;;5012276;28;20040;-47
2024/01/22 10:24:40;;;;;;;23.65;5.43;;;9.50;89.80;;;;;;4994814;28;20028;-44
2024/01/22 10:27:15;;;;;;;21.45;4.93;;;9.40;89.60;;;;;;4997731;28;20030;-48
2024/01/22 10:29:45;;;;;;;18.67;4.88;;;9.40;89.80;;;;;;5023836;28;20014;-47
2024/01/22 10:32:11;;;;;;;19.45;4.50;;;9.40;89.90;;;;;;5020178;28;20033;-47
2024/01/22 10:34:51;;;;;;;15.35;4.03;;;9.40;89.80;;;;;;5017586;28;20022;-46
2024/01/22 10:37:18;;;;;;;19.70;5.00;;;9.40;89.90;;;;;;4994554;28;20439;-46
2024/01/22 10:39:48;;;;;;;21.45;5.47;;;9.50;90.20;;;;;;5012136;28;20469;-45
2024/01/22 10:42:32;;;;;;;17.42;5.28;;;9.60;90.30;;;;;;5013333;28;20026;-44
2024/01/22 10:44:59;;;;;;;20.30;6.03;;;9.70;90.10;;;;;;5012129;28;20103;-45
2024/01/22 10:47:30;;;;;;;25.20;6.60;;;9.70;89.90;;;;;;5022092;28;20295;-47
2024/01/22 10:49:58;;;;;;;20.67;5.25;;;9.70;89.80;;;;;;5000492;28;20037;-46
2024/01/22 10:52:26;;;;;;;22.52;5.45;;;9.70;89.70;;;;;;5010744;28;20014;-46
2024/01/22 10:54:53;;;;;;;16.05;4.78;;;9.70;88.80;;;;;;5018964;28;20459;-45
2024/01/22 10:57:37;;;;;;;20.27;5.55;;;9.70;88.10;;;;;;5011563;28;20026;-45
2024/01/22 11:00:07;;;;;;;24.00;5.97;;;9.70;88.10;;;;;;5017510;28;20285;-48
2024/01/22 11:02:35;;;;;;;29.75;6.88;;;9.80;88.30;;;;;;4993188;28;20113;-47
2024/01/22 11:05:13;;;;;;;33.25;7.07;;;9.80;88.00;;;;;;5010585;28;20050;-47
2024/01/22 11:07:41;;;;;;;30.08;6.72;;;9.80;87.50;;;;;;5013236;28;20029;-47
2024/01/22 11:10:10;;;;;;;18.95;5.40;;;9.70;87.50;;;;;;5011062;28;20026;-47
2024/01/22 11:12:49;;;;;;;27.45;5.75;;;9.80;87.30;;;;;;5006006;28;20203;-47
2024/01/22 11:15:19;;;;;;;18.35;4.85;;;9.80;86.90;;;;;;5004354;28;20029;-47
2024/01/22 11:17:47;;;;;;;;;;;9.70;86.40;;;;;;5026811;28;20018;-47
2024/01/22 11:20:21;;;;;;;19.95;5.63;;;9.70;86.40;;;;;;5015588;28;20028;-48
2024/01/22 11:23:08;;;;;;;31.10;7.60;;;9.60;86.20;;;;;;5004564;28;20069;-51
2024/01/22 11:25:38;;;;;;;24.33;5.03;;;9.50;85.90;;;;;;5009735;28;20040;-48
2024/01/22 11:28:24;;;;;;;27.30;8.35;;;9.60;85.60;;;;;;5012603;28;20463;-51
2024/01/22 11:30:51;;;;;;;23.13;5.57;;;9.70;85.90;;;;;;5016698;28;20096;-48
2024/01/22 11:33:30;;;;;;;23.05;5.38;;;9.90;86.10;;;;;;5019104;28;20084;-48
2024/01/22 11:35:56;;;;;;;25.63;5.70;;;9.90;85.50;;;;;;5011696;28;20404;-48
2024/01/22 11:39:00;;;;;;;23.23;5.35;;;10.00;85.40;;;;;;4997344;28;20123;-51
2024/01/22 11:41:32;;;;;;;25.98;5.88;;;10.10;85.10;;;;;;4993717;28;20429;-52
2024/01/22 11:44:00;;;;;;;22.48;6.38;;;10.10;85.40;;;;;;4994622;28;20037;-50
2024/01/22 11:46:27;;;;;;;34.13;7.97;;;10.10;85.10;;;;;;5014048;28;20431;-50
2024/01/22 11:48:54;;;;;;;22.85;5.28;;;10.00;84.10;;;;;;5029643;28;20033;-49
2024/01/22 11:51:28;;;;;;;20.20;5.72;;;10.00;84.40;;;;;;4993118;28;20034;-48
2024/01/22 11:53:58;;;;;;;22.00;5.78;;;10.00;84.20;;;;;;5011478;28;20112;-55
2024/01/22 11:56:25;;;;;;;18.75;5.70;;;10.00;84.20;;;;;;5010786;28;20038;-51
2024/01/22 11:59:06;;;;;;;20.17;4.88;;;9.90;83.30;;;;;;5009444;28;20456;-49
2024/01/22 12:01:32;;;;;;;22.05;4.88;;;9.80;83.60;;;;;;5004181;28;20026;-51
2024/01/22 12:04:09;;;;;;;20.83;5.25;;;9.70;83.40;;;;;;5006510;28;20054;-51
2024/01/22 12:06:56;;;;;;;20.25;5.10;;;9.70;83.60;;;;;;5009254;28;20030;-53
2024/01/22 12:09:23;;;;;;;21.08;4.13;;;9.70;83.10;;;;;;5013918;28;20499;-49
2024/01/22 12:11:53;;;;;;;19.05;4.75;;;9.70;83.10;;;;;;5011759;28;20179;-49
2024/01/22 12:14:20;;;;;;;27.45;5.53;;;9.70;82.70;;;;;;5004004;28;20042;-51
2024/01/22 12:16:46;;;;;;;25.65;4.57;;;9.70;82.70;;;;;;5010950;28;20115;-50
2024/01/22 12:19:14;;;;;;;22.27;5.28;;;9.70;82.60;;;;;;5024523;28;20476;-50
2024/01/22 12:21:43;;;;;;;21.10;5.15;;;9.60;82.10;;;;;;5003910;28;20041;-49
2024/01/22 12:24:14;;;;;;;24.17;5.63;;;9.60;81.80;;;;;;5011413;28;20036;-50
2024/01/22 12:26:41;;;;;;;17.75;3.90;;;9.60;81.60;;;;;;4996577;28;20033;-50
2024/01/22 12:29:27;;;;;;;13.70;4.15;;;9.50;80.80;;;;;;5010851;28;20105;-49
2024/01/22 12:32:10;;;;;;;18.70;3.85;;;9.50;80.90;;;;;;4996312;28;20517;-51
2024/01/22 12:34:37;;;;;;;14.40;5.15;;;9.50;80.20;;;;;;5012320;28;20148;-51
2024/01/22 12:37:21;;;;;;;19.23;4.55;;;9.50;79.40;;;;;;5024642;28;20458;-49
2024/01/22 12:39:48;;;;;;;16.60;4.53;;;9.50;79.20;;;;;;5010862;28;20107;-53
2024/01/22 12:42:18;;;;;;;11.98;3.15;;;9.50;78.80;;;;;;5005189;28;20406;-51
2024/01/22 12:45:01;;;;;;;25.73;5.40;;;9.50;78.70;;;;;;5014826;28;20030;-50
2024/01/22 12:47:34;;;;;;;21.77;5.10;;;9.50;79.00;;;;;;5014735;28;20025;-50
2024/01/22 12:49:59;;;;;;;17.80;4.28;;;9.50;79.80;;;;;;5023474;28;20113;-55
2024/01/22 12:52:25;;;;;;;16.75;4.78;;;9.50;78.60;;;;;;5014504;28;20108;-48
2024/01/22 12:54:52;;;;;;;23.35;5.68;;;9.50;78.50;;;;;;4994755;28;20465;-48
2024/01/22 12:57:23;;;;;;;25.27;5.40;;;9.40;78.80;;;;;;5019601;28;20041;-50
2024/01/22 12:59:49;;;;;;;13.60;3.80;;;9.40;79.30;;;;;;5003719;28;20335;-53